createdAt,value
2016-10-19T00:00:30.737Z,26.28
2016-10-19T00:01:44.278Z,26.21
2016-10-19T00:02:57.870Z,26.3
2016-10-19T00:04:10.995Z,26.3
2016-10-19T00:05:24.261Z,26.4
2016-10-19T00:06:37.929Z,26.3
2016-10-19T00:07:51.641Z,26.35
2016-10-19T00:09:05.229Z,26.25
2016-10-19T00:10:18.768Z,26.15
2016-10-19T00:11:32.370Z,26.13
2016-10-19T00:12:45.915Z,25.99
2016-10-19T00:13:58.961Z,25.99
2016-10-19T00:15:12.527Z,26.02
2016-10-19T00:16:25.569Z,26.02
2016-10-19T00:17:39.088Z,25.9
2016-10-19T00:18:53.027Z,25.98
2016-10-19T00:20:06.605Z,25.88
2016-10-19T00:21:19.633Z,25.9
2016-10-19T00:22:32.732Z,25.88
2016-10-19T00:23:46.282Z,25.83
2016-10-19T00:24:59.323Z,25.92
2016-10-19T00:26:12.948Z,25.98
2016-10-19T00:27:26.524Z,25.95
2016-10-19T00:28:39.580Z,25.88
2016-10-19T00:29:52.557Z,25.85
2016-10-19T00:31:06.044Z,25.91
2016-10-19T00:32:19.964Z,25.92
2016-10-19T00:33:33.468Z,25.91
2016-10-19T00:34:46.957Z,25.9
2016-10-19T00:36:00.301Z,25.9
2016-10-19T00:37:13.861Z,25.91
2016-10-19T00:38:27.412Z,25.88
2016-10-19T00:39:40.433Z,25.85
2016-10-19T00:40:53.986Z,25.82
2016-10-19T00:42:06.490Z,25.8
2016-10-19T00:43:19.509Z,25.61
2016-10-19T00:44:33.075Z,25.54
2016-10-19T00:45:46.666Z,25.46
2016-10-19T00:47:00.207Z,25.5
2016-10-19T00:48:13.789Z,25.45
2016-10-19T00:49:27.268Z,25.39
2016-10-19T00:50:40.271Z,25.4
2016-10-19T00:51:53.387Z,25.28
2016-10-19T00:53:06.957Z,25.42
2016-10-19T00:54:20.535Z,25.23
2016-10-19T00:55:34.172Z,25.21
2016-10-19T00:56:47.666Z,25.21
2016-10-19T00:58:01.230Z,25.2
2016-10-19T00:59:14.735Z,25.2
2016-10-19T01:00:27.754Z,25.14
2016-10-19T01:01:40.860Z,25.09
2016-10-19T01:02:54.422Z,25.17
2016-10-19T01:04:07.911Z,25.17
2016-10-19T01:05:21.232Z,25.21
2016-10-19T01:06:34.795Z,25.14
2016-10-19T01:07:48.998Z,25.14
2016-10-19T01:09:02.546Z,25.13
2016-10-19T01:10:16.060Z,25.1
2016-10-19T01:11:29.703Z,25.08
2016-10-19T01:12:43.317Z,25.13
2016-10-19T01:13:56.339Z,25.15
2016-10-19T01:15:09.958Z,25.13
2016-10-19T01:16:23.635Z,24.98
2016-10-19T01:17:37.179Z,25.02
2016-10-19T01:18:50.679Z,25.03
2016-10-19T01:20:03.758Z,24.98
2016-10-19T01:21:16.808Z,25.02
2016-10-19T01:22:29.840Z,25.09
2016-10-19T01:23:43.449Z,24.98
2016-10-19T01:24:56.982Z,25
2016-10-19T01:26:09.985Z,24.87
2016-10-19T01:27:22.976Z,24.95
2016-10-19T01:28:36.552Z,24.87
2016-10-19T01:29:50.216Z,24.81
2016-10-19T01:31:03.814Z,24.9
2016-10-19T01:32:17.398Z,24.87
2016-10-19T01:33:30.994Z,24.83
2016-10-19T01:34:44.036Z,24.73
2016-10-19T01:35:57.027Z,24.58
2016-10-19T01:37:10.087Z,24.27
2016-10-19T01:38:23.694Z,24.43
2016-10-19T01:39:36.751Z,24.42
2016-10-19T01:40:50.332Z,24.5
2016-10-19T01:42:03.872Z,24.47
2016-10-19T01:43:17.425Z,24.5
2016-10-19T01:44:30.997Z,24.45
2016-10-19T01:45:43.524Z,24.24
2016-10-19T01:46:57.060Z,24.22
2016-10-19T01:48:10.655Z,24.22
2016-10-19T01:49:23.669Z,24.13
2016-10-19T01:50:37.289Z,24.12
2016-10-19T01:51:50.863Z,24.06
2016-10-19T01:53:04.414Z,23.98
2016-10-19T01:54:17.932Z,24.03
2016-10-19T01:55:30.973Z,23.97
2016-10-19T01:56:44.547Z,23.87
2016-10-19T01:57:57.570Z,23.83
2016-10-19T01:59:11.104Z,23.8
2016-10-19T02:00:24.672Z,23.87
2016-10-19T02:01:37.732Z,23.8
2016-10-19T02:02:51.261Z,23.84
2016-10-19T02:04:04.836Z,23.85
2016-10-19T02:05:18.699Z,23.9
2016-10-19T02:06:31.801Z,23.75
2016-10-19T02:07:45.605Z,23.8
2016-10-19T02:08:59.280Z,23.83
2016-10-19T02:10:12.612Z,23.76
2016-10-19T02:11:26.177Z,23.78
2016-10-19T02:12:39.689Z,23.88
2016-10-19T02:13:53.198Z,23.94
2016-10-19T02:15:06.762Z,23.87
2016-10-19T02:16:20.379Z,23.93
2016-10-19T02:17:34.010Z,23.98
2016-10-19T02:18:47.079Z,23.95
2016-10-19T02:20:00.613Z,23.88
2016-10-19T02:21:13.668Z,23.85
2016-10-19T02:22:27.266Z,23.84
2016-10-19T02:23:40.293Z,23.8
2016-10-19T02:24:53.877Z,23.83
2016-10-19T02:26:07.450Z,23.84
2016-10-19T02:27:21.570Z,23.84
2016-10-19T02:28:35.092Z,23.87
2016-10-19T02:29:48.103Z,23.66
2016-10-19T02:31:01.619Z,23.73
2016-10-19T02:32:15.584Z,23.75
2016-10-19T02:33:29.139Z,23.68
2016-10-19T02:34:42.708Z,23.72
2016-10-19T02:35:56.161Z,23.69
2016-10-19T02:37:09.757Z,23.75
2016-10-19T02:38:23.301Z,23.83
2016-10-19T02:39:36.369Z,23.8
2016-10-19T02:40:49.931Z,23.78
2016-10-19T02:42:03.393Z,23.87
2016-10-19T02:43:16.983Z,23.83
2016-10-19T02:44:30.573Z,23.83
2016-10-19T02:45:43.843Z,23.88
2016-10-19T02:46:57.361Z,23.75
2016-10-19T02:48:10.451Z,23.75
2016-10-19T02:49:24.041Z,23.7
2016-10-19T02:50:37.597Z,23.7
2016-10-19T02:51:51.133Z,23.83
2016-10-19T02:53:04.160Z,23.87
2016-10-19T02:54:17.772Z,23.79
2016-10-19T02:55:31.381Z,23.79
2016-10-19T02:56:43.923Z,23.7
2016-10-19T02:57:57.451Z,23.7
2016-10-19T02:59:11.019Z,23.75
2016-10-19T03:00:24.077Z,23.76
2016-10-19T03:01:37.635Z,23.7
2016-10-19T03:02:50.586Z,23.63
2016-10-19T03:04:03.585Z,23.7
2016-10-19T03:05:17.091Z,23.68
2016-10-19T03:06:30.689Z,23.76
2016-10-19T03:07:44.739Z,23.83
2016-10-19T03:08:58.311Z,23.72
2016-10-19T03:10:11.874Z,23.76
2016-10-19T03:11:24.802Z,23.78
2016-10-19T03:12:38.310Z,23.65
2016-10-19T03:13:51.351Z,23.69
2016-10-19T03:15:04.935Z,23.54
2016-10-19T03:16:18.001Z,23.48
2016-10-19T03:17:31.533Z,23.47
2016-10-19T03:18:45.140Z,23.35
2016-10-19T03:19:58.702Z,23.36
2016-10-19T03:21:12.577Z,23.39
2016-10-19T03:22:26.214Z,23.4
2016-10-19T03:23:39.696Z,23.39
2016-10-19T03:24:53.301Z,23.48
2016-10-19T03:26:06.792Z,23.35
2016-10-19T03:27:20.306Z,23.35
2016-10-19T03:28:33.876Z,23.35
2016-10-19T03:29:47.404Z,23.4
2016-10-19T03:31:00.411Z,23.35
2016-10-19T03:32:13.403Z,23.39
2016-10-19T03:33:26.470Z,23.38
2016-10-19T03:34:39.020Z,23.32
2016-10-19T03:35:52.541Z,23.23
2016-10-19T03:37:06.069Z,23.28
2016-10-19T03:38:19.925Z,23.1
2016-10-19T03:39:33.506Z,23.1
2016-10-19T03:40:46.505Z,23.16
2016-10-19T03:42:00.061Z,23.13
2016-10-19T03:43:13.263Z,23.17
2016-10-19T03:44:26.233Z,23.27
2016-10-19T03:45:39.311Z,23.15
2016-10-19T03:46:53.019Z,23.05
2016-10-19T03:48:06.904Z,23.02
2016-10-19T03:49:19.915Z,23.07
2016-10-19T03:50:33.484Z,23.17
2016-10-19T03:51:47.067Z,23.19
2016-10-19T03:52:59.604Z,23.23
2016-10-19T03:54:13.122Z,23.15
2016-10-19T03:55:26.627Z,22.98
2016-10-19T03:56:39.704Z,23.12
2016-10-19T03:57:53.307Z,23.13
2016-10-19T03:59:06.854Z,23.13
2016-10-19T04:00:20.476Z,23.17
2016-10-19T04:01:34.063Z,23.17
2016-10-19T04:02:47.058Z,23.13
2016-10-19T04:04:00.609Z,23
2016-10-19T04:05:14.178Z,22.97
2016-10-19T04:06:27.168Z,23.13
2016-10-19T04:07:40.884Z,23.2
2016-10-19T04:08:54.535Z,23.09
2016-10-19T04:10:08.126Z,23.04
2016-10-19T04:11:21.852Z,22.98
2016-10-19T04:12:34.875Z,23.13
2016-10-19T04:13:48.699Z,23.17
2016-10-19T04:15:02.266Z,23.13
2016-10-19T04:16:15.632Z,23.05
2016-10-19T04:17:29.256Z,23
2016-10-19T04:18:42.831Z,23.01
2016-10-19T04:19:56.367Z,22.98
2016-10-19T04:21:09.962Z,23.01
2016-10-19T04:22:23.473Z,23
2016-10-19T04:23:37.017Z,22.95
2016-10-19T04:24:50.661Z,22.98
2016-10-19T04:26:04.214Z,22.98
2016-10-19T04:27:17.785Z,22.95
2016-10-19T04:28:30.767Z,22.97
2016-10-19T04:29:44.301Z,23.02
2016-10-19T04:30:57.325Z,23.09
2016-10-19T04:32:10.887Z,23.05
2016-10-19T04:33:24.367Z,23.15
2016-10-19T04:34:37.830Z,23.12
2016-10-19T04:35:51.412Z,23.16
2016-10-19T04:37:04.418Z,23.19
2016-10-19T04:38:17.419Z,23.1
2016-10-19T04:39:30.990Z,23
2016-10-19T04:40:43.988Z,23.09
2016-10-19T04:41:57.605Z,23.07
2016-10-19T04:43:11.171Z,23.16
2016-10-19T04:44:24.180Z,23.16
2016-10-19T04:45:36.688Z,23.25
2016-10-19T04:46:50.229Z,23.16
2016-10-19T04:48:03.830Z,23.25
2016-10-19T04:49:17.363Z,23.17
2016-10-19T04:50:30.370Z,23.19
2016-10-19T04:51:43.381Z,23.22
2016-10-19T04:52:56.960Z,23.09
2016-10-19T04:54:10.504Z,23.16
2016-10-19T04:55:23.823Z,23.12
2016-10-19T04:56:37.392Z,23.13
2016-10-19T04:57:50.907Z,23.13
2016-10-19T04:59:03.653Z,23.13
2016-10-19T05:00:17.188Z,23.19
2016-10-19T05:01:29.677Z,23.09
2016-10-19T05:02:43.241Z,23.13
2016-10-19T05:03:56.259Z,23.13
2016-10-19T05:05:09.768Z,23.17
2016-10-19T05:06:23.339Z,23.2
2016-10-19T05:07:36.429Z,23.2
2016-10-19T05:08:50.107Z,23.31
2016-10-19T05:10:03.071Z,23.33
2016-10-19T05:11:16.165Z,23.28
2016-10-19T05:12:29.754Z,23.25
2016-10-19T05:13:43.284Z,23.15
2016-10-19T05:14:55.794Z,23.12
2016-10-19T05:16:09.318Z,23.12
2016-10-19T05:17:23.122Z,23.13
2016-10-19T05:18:36.692Z,23.16
2016-10-19T05:19:49.760Z,23.25
2016-10-19T05:21:03.351Z,23.19
2016-10-19T05:22:16.938Z,23.16
2016-10-19T05:23:29.909Z,23.04
2016-10-19T05:24:42.982Z,22.92
2016-10-19T05:25:56.623Z,23.05
2016-10-19T05:27:09.635Z,23
2016-10-19T05:28:22.665Z,23.02
2016-10-19T05:29:36.225Z,23.05
2016-10-19T05:30:49.948Z,22.94
2016-10-19T05:32:03.436Z,22.97
2016-10-19T05:33:16.534Z,23
2016-10-19T05:34:29.575Z,22.97
2016-10-19T05:35:43.136Z,23.07
2016-10-19T05:36:55.648Z,22.97
2016-10-19T05:38:09.210Z,22.97
2016-10-19T05:39:22.302Z,23.02
2016-10-19T05:40:35.405Z,23.12
2016-10-19T05:41:48.760Z,22.98
2016-10-19T05:43:01.527Z,23.12
2016-10-19T05:44:14.494Z,23.09
2016-10-19T05:45:28.036Z,23.16
2016-10-19T05:46:41.605Z,23.16
2016-10-19T05:47:55.134Z,22.97
2016-10-19T05:49:08.805Z,22.88
2016-10-19T05:50:22.335Z,22.91
2016-10-19T05:51:35.641Z,22.9
2016-10-19T05:52:49.164Z,22.95
2016-10-19T05:54:02.177Z,22.92
2016-10-19T05:55:15.785Z,22.91
2016-10-19T05:56:29.312Z,23
2016-10-19T05:57:42.280Z,22.98
2016-10-19T05:58:55.615Z,22.92
2016-10-19T06:00:10.165Z,22.95
2016-10-19T06:01:23.694Z,22.92
2016-10-19T06:02:37.234Z,23.02
2016-10-19T06:03:50.760Z,22.92
2016-10-19T06:05:04.250Z,22.86
2016-10-19T06:06:17.837Z,22.92
2016-10-19T06:07:31.096Z,22.98
2016-10-19T06:08:43.591Z,23.02
2016-10-19T06:09:56.609Z,23.01
2016-10-19T06:11:10.220Z,23.01
2016-10-19T06:12:23.456Z,23.01
2016-10-19T06:13:37.046Z,23.1
2016-10-19T06:14:50.104Z,23.16
2016-10-19T06:16:03.131Z,23.25
2016-10-19T06:17:16.624Z,23.19
2016-10-19T06:18:29.651Z,23
2016-10-19T06:19:43.227Z,23.04
2016-10-19T06:20:56.237Z,22.95
2016-10-19T06:22:09.263Z,22.88
2016-10-19T06:23:23.176Z,22.95
2016-10-19T06:24:36.224Z,22.9
2016-10-19T06:25:49.489Z,22.88
2016-10-19T06:27:03.070Z,22.91
2016-10-19T06:28:16.612Z,22.86
2016-10-19T06:29:30.228Z,22.94
2016-10-19T06:30:43.752Z,22.95
2016-10-19T06:31:57.332Z,22.91
2016-10-19T06:33:10.873Z,22.98
2016-10-19T06:34:24.405Z,22.95
2016-10-19T06:35:38.028Z,22.98
2016-10-19T06:36:51.033Z,23.02
2016-10-19T06:38:04.613Z,22.95
2016-10-19T06:39:17.636Z,22.97
2016-10-19T06:40:30.642Z,22.98
2016-10-19T06:41:44.193Z,23
2016-10-19T06:42:57.807Z,22.98
2016-10-19T06:44:11.432Z,22.92
2016-10-19T06:45:24.472Z,23.04
2016-10-19T06:46:38.034Z,23.02
2016-10-19T06:47:51.956Z,22.97
2016-10-19T06:49:04.452Z,23.01
2016-10-19T06:50:18.162Z,22.95
2016-10-19T06:51:31.158Z,23.02
2016-10-19T06:52:43.108Z,23.05
2016-10-19T06:53:56.630Z,23.12
2016-10-19T06:55:09.244Z,23.07
2016-10-19T06:56:22.569Z,23.09
2016-10-19T06:57:36.111Z,23.17
2016-10-19T06:58:49.671Z,23.2
2016-10-19T07:00:03.254Z,23.13
2016-10-19T07:01:16.780Z,23.13
2016-10-19T07:02:29.849Z,23.07
2016-10-19T07:03:43.459Z,23.04
2016-10-19T07:04:56.392Z,22.95
2016-10-19T07:06:09.894Z,23.1
2016-10-19T07:07:22.883Z,23.1
2016-10-19T07:08:36.387Z,23.12
2016-10-19T07:09:49.514Z,23.23
2016-10-19T07:11:02.991Z,23.16
2016-10-19T07:12:16.557Z,23.2
2016-10-19T07:13:29.511Z,23.23
2016-10-19T07:14:43.146Z,23.2
2016-10-19T07:15:56.686Z,23.1
2016-10-19T07:17:09.740Z,22.98
2016-10-19T07:18:22.761Z,23.02
2016-10-19T07:19:36.097Z,22.98
2016-10-19T07:20:49.704Z,22.97
2016-10-19T07:22:02.175Z,23
2016-10-19T07:23:15.773Z,23.02
2016-10-19T07:24:29.371Z,23.04
2016-10-19T07:25:42.913Z,23.17
2016-10-19T07:26:56.488Z,23.02
2016-10-19T07:28:10.083Z,23.07
2016-10-19T07:29:23.693Z,23.05
2016-10-19T07:30:37.256Z,23.07
2016-10-19T07:31:50.296Z,23.04
2016-10-19T07:33:03.817Z,23.05
2016-10-19T07:34:17.336Z,23.02
2016-10-19T07:35:30.909Z,22.97
2016-10-19T07:36:44.428Z,22.97
2016-10-19T07:37:57.441Z,22.92
2016-10-19T07:39:09.976Z,23.02
2016-10-19T07:40:23.526Z,23.15
2016-10-19T07:41:37.067Z,23.1
2016-10-19T07:42:50.111Z,22.98
2016-10-19T07:44:03.665Z,23
2016-10-19T07:45:17.312Z,23.07
2016-10-19T07:46:30.765Z,23.15
2016-10-19T07:47:43.833Z,23.07
2016-10-19T07:48:56.934Z,23.17
2016-10-19T07:50:09.916Z,23.04
2016-10-19T07:51:23.465Z,23.2
2016-10-19T07:52:36.518Z,23.17
2016-10-19T07:53:50.152Z,23.17
2016-10-19T07:55:03.723Z,23.17
2016-10-19T07:56:16.771Z,23.33
2016-10-19T07:57:30.314Z,23.31
2016-10-19T07:58:42.832Z,23.25
2016-10-19T07:59:56.181Z,23.2
2016-10-19T08:01:09.202Z,23.16
2016-10-19T08:02:22.238Z,23.13
2016-10-19T08:03:34.785Z,23.1
2016-10-19T08:04:48.340Z,23.01
2016-10-19T08:06:01.353Z,22.92
2016-10-19T08:07:14.404Z,23.01
2016-10-19T08:08:27.991Z,23
2016-10-19T08:09:41.022Z,22.95
2016-10-19T08:10:54.618Z,23.01
2016-10-19T08:12:07.673Z,23.04
2016-10-19T08:13:21.220Z,23.13
2016-10-19T08:14:34.782Z,23.05
2016-10-19T08:15:47.709Z,23.05
2016-10-19T08:17:01.239Z,23.02
2016-10-19T08:18:14.255Z,23.07
2016-10-19T08:19:27.793Z,23.22
2016-10-19T08:20:41.381Z,23.19
2016-10-19T08:21:54.965Z,23.22
2016-10-19T08:23:08.227Z,23.16
2016-10-19T08:24:21.375Z,23.17
2016-10-19T08:25:34.975Z,23.16
2016-10-19T08:26:48.585Z,23.16
2016-10-19T08:28:01.625Z,23.27
2016-10-19T08:29:14.624Z,23.2
2016-10-19T08:30:28.134Z,23.25
2016-10-19T08:31:41.164Z,23.27
2016-10-19T08:32:54.775Z,23.32
2016-10-19T08:34:07.800Z,23.2
2016-10-19T08:35:20.808Z,23.25
2016-10-19T08:36:34.310Z,23.15
2016-10-19T08:37:47.302Z,23.17
2016-10-19T08:39:00.867Z,23.07
2016-10-19T08:40:14.509Z,23.07
2016-10-19T08:41:28.091Z,23.23
2016-10-19T08:42:41.143Z,23.1
2016-10-19T08:43:54.263Z,23.07
2016-10-19T08:45:07.848Z,23.09
2016-10-19T08:46:21.396Z,23.1
2016-10-19T08:47:34.931Z,22.98
2016-10-19T08:48:47.977Z,23.12
2016-10-19T08:50:00.985Z,23.12
2016-10-19T08:51:14.493Z,23.1
2016-10-19T08:52:28.053Z,23.17
2016-10-19T08:53:41.622Z,23.16
2016-10-19T08:54:54.630Z,23.17
2016-10-19T08:56:08.193Z,23.19
2016-10-19T08:57:21.569Z,23.13
2016-10-19T08:58:34.552Z,23.19
2016-10-19T08:59:47.050Z,23.2
2016-10-19T09:01:00.513Z,23.19
2016-10-19T09:02:14.057Z,23.32
2016-10-19T09:03:27.015Z,23.27
2016-10-19T09:04:40.563Z,23.36
2016-10-19T09:05:54.098Z,23.33
2016-10-19T09:07:07.727Z,23.38
2016-10-19T09:08:21.278Z,23.46
2016-10-19T09:09:34.323Z,23.46
2016-10-19T09:10:47.609Z,23.4
2016-10-19T09:12:01.140Z,23.42
2016-10-19T09:13:14.664Z,23.5
2016-10-19T09:14:28.202Z,23.42
2016-10-19T09:15:41.829Z,23.48
2016-10-19T09:16:55.388Z,23.46
2016-10-19T09:18:08.467Z,23.42
2016-10-19T09:19:22.054Z,23.42
2016-10-19T09:20:35.729Z,23.46
2016-10-19T09:21:48.913Z,23.48
2016-10-19T09:23:01.944Z,23.5
2016-10-19T09:24:15.886Z,23.6
2016-10-19T09:25:29.451Z,23.55
2016-10-19T09:26:42.711Z,23.57
2016-10-19T09:27:55.757Z,23.57
2016-10-19T09:29:08.211Z,23.55
2016-10-19T09:30:21.497Z,23.57
2016-10-19T09:31:34.959Z,23.69
2016-10-19T09:32:48.009Z,23.68
2016-10-19T09:34:01.538Z,23.69
2016-10-19T09:35:15.113Z,23.69
2016-10-19T09:36:28.680Z,23.75
2016-10-19T09:37:42.270Z,23.73
2016-10-19T09:38:55.328Z,23.76
2016-10-19T09:40:08.860Z,23.85
2016-10-19T09:41:21.650Z,23.85
2016-10-19T09:42:35.173Z,23.72
2016-10-19T09:43:48.948Z,23.83
2016-10-19T09:45:02.543Z,23.85
2016-10-19T09:46:16.139Z,23.84
2016-10-19T09:47:29.227Z,23.84
2016-10-19T09:48:42.750Z,23.91
2016-10-19T09:49:56.350Z,23.9
2016-10-19T09:51:09.460Z,23.88
2016-10-19T09:52:23.186Z,24.02
2016-10-19T09:53:36.676Z,23.98
2016-10-19T09:54:49.609Z,24.02
2016-10-19T09:56:02.627Z,23.98
2016-10-19T09:57:16.197Z,23.97
2016-10-19T09:58:29.705Z,24.1
2016-10-19T09:59:43.312Z,23.98
2016-10-19T10:00:56.911Z,24
2016-10-19T10:02:10.496Z,24
2016-10-19T10:03:24.137Z,24.09
2016-10-19T10:04:36.606Z,23.98
2016-10-19T10:05:49.657Z,24.03
2016-10-19T10:07:02.634Z,24.02
2016-10-19T10:08:16.188Z,24.06
2016-10-19T10:09:29.726Z,24.08
2016-10-19T10:10:43.283Z,24.12
2016-10-19T10:11:56.276Z,23.87
2016-10-19T10:13:07.689Z,23.85
2016-10-19T10:14:21.182Z,23.97
2016-10-19T10:15:34.438Z,23.93
2016-10-19T10:16:47.673Z,23.91
2016-10-19T10:18:01.224Z,23.85
2016-10-19T10:19:14.812Z,23.98
2016-10-19T10:20:27.813Z,23.95
2016-10-19T10:21:41.367Z,23.98
2016-10-19T10:22:54.936Z,24
2016-10-19T10:24:08.478Z,23.88
2016-10-19T10:25:22.006Z,23.95
2016-10-19T10:26:35.026Z,23.97
2016-10-19T10:27:48.593Z,24.03
2016-10-19T10:29:02.235Z,24.02
2016-10-19T10:30:15.893Z,24.1
2016-10-19T10:31:32.521Z,24.05
2016-10-19T10:32:46.077Z,23.97
2016-10-19T10:33:59.571Z,24.08
2016-10-19T10:35:13.100Z,24.09
2016-10-19T10:36:26.127Z,24.16
2016-10-19T10:37:39.609Z,24.16
2016-10-19T10:38:53.264Z,24.21
2016-10-19T10:40:06.797Z,24.27
2016-10-19T10:41:19.819Z,24.22
2016-10-19T10:42:32.850Z,24.35
2016-10-19T10:43:46.407Z,24.39
2016-10-19T10:44:59.950Z,24.4
2016-10-19T10:46:13.499Z,24.52
2016-10-19T10:47:26.569Z,24.47
2016-10-19T10:48:40.083Z,24.61
2016-10-19T10:49:53.661Z,24.71
2016-10-19T10:51:05.902Z,24.73
2016-10-19T10:52:19.442Z,24.77
2016-10-19T10:53:33.037Z,24.88
2016-10-19T10:54:46.623Z,24.88
2016-10-19T10:55:59.152Z,24.85
2016-10-19T10:57:11.678Z,24.99
2016-10-19T10:58:25.197Z,24.91
2016-10-19T10:59:38.730Z,24.93
2016-10-19T11:00:52.270Z,25.06
2016-10-19T11:02:05.850Z,25.03
2016-10-19T11:03:19.405Z,25.13
2016-10-19T11:04:32.981Z,25.09
2016-10-19T11:05:46.021Z,25.17
2016-10-19T11:06:59.591Z,25.23
2016-10-19T11:08:13.180Z,25.23
2016-10-19T11:09:25.903Z,25.24
2016-10-19T11:10:39.468Z,25.39
2016-10-19T11:11:53.277Z,25.51
2016-10-19T11:13:06.251Z,25.4
2016-10-19T11:14:19.784Z,25.45
2016-10-19T11:15:32.786Z,25.45
2016-10-19T11:16:45.881Z,25.51
2016-10-19T11:17:59.434Z,25.46
2016-10-19T11:19:12.466Z,25.47
2016-10-19T11:20:26.317Z,25.51
2016-10-19T11:21:39.917Z,25.57
2016-10-19T11:22:53.492Z,25.54
2016-10-19T11:24:07.046Z,25.7
2016-10-19T11:25:20.112Z,25.7
2016-10-19T11:26:33.642Z,25.76
2016-10-19T11:27:46.710Z,25.8
2016-10-19T11:29:00.309Z,25.88
2016-10-19T11:30:13.811Z,25.92
2016-10-19T11:31:27.447Z,25.95
2016-10-19T11:32:41.027Z,26.05
2016-10-19T11:33:54.560Z,26.1
2016-10-19T11:35:08.111Z,26.1
2016-10-19T11:36:21.542Z,26.26
2016-10-19T11:37:34.999Z,26.33
2016-10-19T11:38:48.573Z,26.39
2016-10-19T11:40:01.595Z,26.39
2016-10-19T11:41:14.614Z,26.4
2016-10-19T11:42:27.914Z,26.52
2016-10-19T11:43:41.522Z,26.57
2016-10-19T11:44:55.053Z,26.66
2016-10-19T11:46:08.051Z,26.82
2016-10-19T11:47:21.632Z,26.89
2016-10-19T11:48:34.711Z,26.92
2016-10-19T11:49:47.465Z,27.07
2016-10-19T11:51:00.460Z,27.22
2016-10-19T11:52:12.928Z,27.27
2016-10-19T11:53:25.976Z,27.39
2016-10-19T11:54:39.014Z,27.47
2016-10-19T11:55:52.545Z,27.62
2016-10-19T11:57:06.065Z,27.57
2016-10-19T11:58:19.591Z,27.7
2016-10-19T11:59:33.090Z,27.88
2016-10-19T12:00:46.671Z,27.93
2016-10-19T12:01:59.633Z,28.02
2016-10-19T12:03:12.812Z,28.11
2016-10-19T12:04:26.386Z,28.19
2016-10-19T12:05:39.468Z,28.18
2016-10-19T12:06:53.351Z,28.3
2016-10-19T12:08:06.881Z,28.46
2016-10-19T12:09:20.480Z,28.61
2016-10-19T12:10:34.024Z,28.55
2016-10-19T12:11:47.614Z,28.56
2016-10-19T12:13:00.635Z,28.68
2016-10-19T12:14:14.164Z,28.77
2016-10-19T12:15:27.766Z,28.92
2016-10-19T12:16:40.745Z,29.02
2016-10-19T12:17:54.293Z,29.14
2016-10-19T12:19:07.922Z,29.28
2016-10-19T12:20:21.485Z,29.23
2016-10-19T12:21:34.012Z,29.26
2016-10-19T12:22:47.021Z,29.27
2016-10-19T12:24:00.592Z,29.41
2016-10-19T12:25:13.587Z,29.42
2016-10-19T12:26:26.596Z,29.52
2016-10-19T12:27:40.149Z,29.63
2016-10-19T12:28:53.239Z,29.7
2016-10-19T12:30:06.214Z,29.78
2016-10-19T12:31:19.847Z,29.8
2016-10-19T12:32:31.744Z,29.97
2016-10-19T12:33:45.282Z,29.98
2016-10-19T12:34:57.790Z,30.15
2016-10-19T12:36:10.823Z,30.23
2016-10-19T12:37:23.869Z,30.2
2016-10-19T12:38:37.422Z,30.43
2016-10-19T12:39:50.450Z,30.47
2016-10-19T12:41:03.447Z,30.51
2016-10-19T12:42:17.048Z,30.62
2016-10-19T12:43:30.663Z,30.69
2016-10-19T12:44:44.190Z,30.67
2016-10-19T12:45:57.740Z,30.86
2016-10-19T12:47:11.036Z,30.86
2016-10-19T12:48:24.579Z,30.91
2016-10-19T12:49:38.176Z,31.02
2016-10-19T12:50:50.645Z,31.09
2016-10-19T12:52:04.227Z,31.07
2016-10-19T12:53:17.833Z,31.12
2016-10-19T12:54:31.399Z,31.2
2016-10-19T12:55:44.989Z,31.2
2016-10-19T12:56:58.649Z,31.2
2016-10-19T12:58:12.376Z,31.35
2016-10-19T12:59:25.957Z,31.58
2016-10-19T13:00:39.516Z,31.63
2016-10-19T13:01:53.342Z,31.54
2016-10-19T13:03:06.472Z,31.66
2016-10-19T13:04:20.208Z,31.91
2016-10-19T13:05:33.246Z,31.93
2016-10-19T13:06:46.871Z,31.95
2016-10-19T13:08:00.411Z,32.13
2016-10-19T13:09:13.733Z,32.26
2016-10-19T13:10:26.755Z,32.26
2016-10-19T13:11:40.343Z,32.3
2016-10-19T13:12:53.937Z,32.4
2016-10-19T13:14:07.610Z,32.6
2016-10-19T13:15:21.185Z,32.6
2016-10-19T13:16:34.805Z,32.84
2016-10-19T13:17:47.927Z,32.94
2016-10-19T13:19:01.195Z,33.01
2016-10-19T13:20:13.756Z,33.07
2016-10-19T13:21:27.415Z,32.94
2016-10-19T13:22:40.986Z,33.06
2016-10-19T13:23:54.603Z,33.29
2016-10-19T13:25:07.593Z,33.41
2016-10-19T13:26:21.115Z,33.41
2016-10-19T13:27:34.378Z,33.69
2016-10-19T13:28:47.900Z,33.69
2016-10-19T13:30:00.399Z,33.79
2016-10-19T13:31:13.960Z,34.03
2016-10-19T13:32:27.031Z,34.31
2016-10-19T13:33:40.067Z,34.44
2016-10-19T13:34:53.664Z,34.44
2016-10-19T13:36:07.210Z,34.31
2016-10-19T13:37:20.734Z,34.24
2016-10-19T13:38:34.327Z,34.31
2016-10-19T13:39:47.980Z,34.5
2016-10-19T13:41:01.609Z,34.5
2016-10-19T13:42:15.159Z,34.91
2016-10-19T13:43:28.177Z,34.99
2016-10-19T13:44:40.658Z,35.19
2016-10-19T13:45:54.186Z,35.16
2016-10-19T13:47:07.186Z,35.36
2016-10-19T13:48:20.236Z,35.43
2016-10-19T13:49:33.244Z,35.74
2016-10-19T13:50:46.785Z,35.96
2016-10-19T13:52:00.362Z,36.13
2016-10-19T13:53:13.947Z,35.97
2016-10-19T13:54:27.536Z,36.2
2016-10-19T13:55:41.132Z,36.07
2016-10-19T13:56:54.728Z,36.12
2016-10-19T13:58:08.221Z,36.15
2016-10-19T13:59:21.309Z,36.34
2016-10-19T14:00:34.922Z,36.41
2016-10-19T14:01:48.186Z,36.54
2016-10-19T14:03:01.244Z,36.9
2016-10-19T14:04:14.846Z,36.9
2016-10-19T14:05:27.699Z,36.84
2016-10-19T14:06:40.761Z,37.24
2016-10-19T14:07:54.255Z,37.07
2016-10-19T14:09:07.363Z,37.51
2016-10-19T14:10:20.986Z,37.81
2016-10-19T14:11:34.032Z,38.13
2016-10-19T14:12:47.523Z,38.3
2016-10-19T14:14:00.664Z,37.93
2016-10-19T14:15:13.799Z,38.47
2016-10-19T14:16:27.388Z,38.79
2016-10-19T14:17:40.121Z,38.81
2016-10-19T14:18:53.168Z,38.76
2016-10-19T14:20:06.181Z,38.72
2016-10-19T14:21:19.813Z,38.9
2016-10-19T14:22:33.392Z,39.36
2016-10-19T14:23:46.428Z,39.72
2016-10-19T14:24:59.945Z,39.82
2016-10-19T14:26:12.940Z,40.08
2016-10-19T14:27:25.961Z,39.7
2016-10-19T14:28:39.010Z,39.17
2016-10-19T14:29:52.601Z,39.81
2016-10-19T14:31:06.169Z,40.34
2016-10-19T14:32:18.715Z,40.7
2016-10-19T14:33:31.784Z,40.82
2016-10-19T14:34:44.814Z,40.27
2016-10-19T14:35:58.426Z,40.62
2016-10-19T14:37:12.019Z,40.92
2016-10-19T14:38:25.606Z,41.02
2016-10-19T14:39:39.154Z,41.32
2016-10-19T14:40:52.705Z,41.32
2016-10-19T14:42:06.323Z,40.99
2016-10-19T14:43:19.878Z,41.13
2016-10-19T14:44:32.965Z,40.79
2016-10-19T14:45:46.490Z,39.82
2016-10-19T14:46:59.552Z,39.79
2016-10-19T14:48:13.153Z,40.01
2016-10-19T14:49:26.706Z,39.86
2016-10-19T14:50:39.855Z,39.94
2016-10-19T14:51:53.416Z,39.96
2016-10-19T14:53:06.977Z,39.86
2016-10-19T14:54:20.533Z,40.19
2016-10-19T14:55:34.123Z,40.34
2016-10-19T14:56:47.241Z,40.64
2016-10-19T14:58:00.842Z,41.04
2016-10-19T14:59:13.862Z,41.52
2016-10-19T15:00:27.470Z,41.04
2016-10-19T15:01:41.109Z,40.48
2016-10-19T15:02:54.130Z,40.41
2016-10-19T15:04:07.150Z,40.23
2016-10-19T15:05:20.658Z,40.34
2016-10-19T15:06:33.690Z,40.23
2016-10-19T15:07:47.380Z,40.67
2016-10-19T15:08:59.923Z,40.99
2016-10-19T15:10:11.858Z,41.25
2016-10-19T15:11:24.988Z,41.45
2016-10-19T15:12:38.044Z,42.01
2016-10-19T15:13:51.634Z,41.86
2016-10-19T15:15:04.399Z,41.1
2016-10-19T15:16:17.938Z,41.07
2016-10-19T15:17:31.001Z,41.17
2016-10-19T15:18:44.517Z,41.51
2016-10-19T15:19:58.116Z,41.42
2016-10-19T15:21:11.147Z,41.57
2016-10-19T15:22:24.150Z,41.71
2016-10-19T15:23:37.167Z,41.62
2016-10-19T15:24:50.766Z,41.8
2016-10-19T15:26:03.848Z,41.99
2016-10-19T15:27:17.465Z,42.08
2016-10-19T15:28:31.057Z,42.01
2016-10-19T15:29:43.850Z,41.58
2016-10-19T15:30:56.963Z,41.51
2016-10-19T15:32:10.005Z,41.47
2016-10-19T15:33:23.507Z,41.83
2016-10-19T15:34:37.076Z,41.45
2016-10-19T15:35:50.087Z,41.17
2016-10-19T15:37:03.702Z,41.13
2016-10-19T15:38:16.751Z,41.54
2016-10-19T15:39:30.345Z,41.55
2016-10-19T15:40:43.404Z,41.48
2016-10-19T15:41:56.480Z,41.28
2016-10-19T15:43:10.032Z,41.51
2016-10-19T15:44:23.093Z,42.05
2016-10-19T15:45:36.179Z,42.37
2016-10-19T15:46:49.225Z,42.43
2016-10-19T15:48:02.829Z,42.31
2016-10-19T15:49:16.349Z,42.7
2016-10-19T15:50:29.141Z,42.61